Time;durP1;ratioP1;P1;durP2;ratioP2;P2;SDS_P1;SDS_P2;PMS_P1;PMS_P2;Temp;Humidity;BMP_temperature;BMP_pressure;BME280_temperature;BME280_humidity;BME280_pressure;Samples;Min_cycle;Max_cycle;Signal;HPM_P1;HPM_P2
2022/02/01 00:01:58;;;;;;;21.63;3.45;;;;;;;;;;5147472;27;20066;-58
2022/02/01 00:04:45;;;;;;;21.35;4.65;;;;;;;;;;5147898;27;20417;-59
2022/02/01 00:07:37;;;;;;;27.27;4.65;;;;;;;;;;5148014;27;20050;-58
2022/02/01 00:10:13;;;;;;;25.27;3.17;;;;;;;;;;5148298;27;20078;-57
2022/02/01 00:12:58;;;;;;;27.15;3.20;;;;;;;;;;5147983;27;20039;-60
2022/02/01 00:37:20;;;;;;;16.67;2.97;;;;;;;;;;5103657;28;20052;-58
2022/02/01 00:39:55;;;;;;;14.75;2.00;;;;;;;;;;5104261;28;20052;-57
2022/02/01 00:42:21;;;;;;;17.75;2.30;;;;;;;;;;5086534;28;20054;-57
2022/02/01 00:44:47;;;;;;;20.88;2.83;;;;;;;;;;5103896;28;20051;-57
2022/02/01 00:47:13;;;;;;;22.50;3.55;;;;;;;;;;5103878;28;20047;-57
2022/02/01 00:49:40;;;;;;;24.63;3.22;;;;;;;;;;5103886;28;20075;-58
2022/02/01 00:52:06;;;;;;;22.73;3.30;;;;;;;;;;5103149;28;20058;-57
2022/02/01 00:54:32;;;;;;;18.05;4.25;;;;;;;;;;5103772;28;20071;-57
2022/02/01 00:56:58;;;;;;;19.77;2.97;;;;;;;;;;5111475;28;20047;-57
2022/02/01 00:59:25;;;;;;;18.73;2.75;;;;;;;;;;5130800;27;20122;-57
2022/02/01 01:01:51;;;;;;;20.58;3.15;;;;;;;;;;5146588;27;20049;-59
2022/02/01 01:04:18;;;;;;;16.73;2.92;;;;;;;;;;5146807;27;20058;-59
2022/02/01 01:06:44;;;;;;;9.48;2.45;;;;;;;;;;5146625;27;20071;-58
2022/02/01 01:09:10;;;;;;;18.52;3.10;;;;;;;;;;5144378;27;20051;-59
2022/02/01 01:11:36;;;;;;;18.33;2.33;;;;;;;;;;5147037;27;20101;-57
2022/02/01 01:43:59;;;;;;;16.52;2.75;;;;;;;;;;5146469;27;20058;-57
2022/02/01 01:54:25;;;;;;;11.75;2.67;;;;;;;;;;5146471;27;20054;-59
2022/02/01 01:56:53;;;;;;;17.48;2.95;;;;;;;;;;5145780;27;20054;-58
2022/02/01 01:59:20;;;;;;;19.80;3.55;;;;;;;;;;5146000;27;20061;-58
2022/02/01 02:01:46;;;;;;;13.23;1.60;;;;;;;;;;5150672;27;20557;-58
2022/02/01 02:04:13;;;;;;;19.23;3.55;;;;;;;;;;5145804;27;20050;-58
2022/02/01 02:06:39;;;;;;;17.50;2.08;;;;;;;;;;5145334;27;20047;-58
2022/02/01 02:09:08;;;;;;;21.63;2.15;;;;;;;;;;5145836;27;20069;-58
2022/02/01 02:14:20;;;;;;;12.23;2.10;;;;;;;;;;5145831;27;20043;-58
2022/02/01 02:16:48;;;;;;;19.27;2.30;;;;;;;;;;5146390;27;20047;-58
2022/02/01 02:19:14;;;;;;;17.13;2.60;;;;;;;;;;5145572;27;20048;-58
2022/02/01 02:21:45;;;;;;;10.77;2.25;;;;;;;;;;5144849;27;20051;-58
2022/02/01 02:24:11;;;;;;;12.73;2.53;;;;;;;;;;5145652;27;20074;-59
2022/02/01 02:26:37;;;;;;;12.23;2.25;;;;;;;;;;5159357;27;20130;-58
2022/02/01 02:29:04;;;;;;;25.35;2.47;;;;;;;;;;5166219;27;20035;-58
2022/02/01 02:31:32;;;;;;;17.00;2.22;;;;;;;;;;5166424;27;20056;-58
2022/02/01 02:33:58;;;;;;;;;;;;;;;;;;5166596;27;20053;-58
2022/02/01 02:36:24;;;;;;;12.27;2.67;;;;;;;;;;5165669;27;19930;-59
2022/02/01 02:39:03;;;;;;;12.88;2.67;;;;;;;;;;5158520;27;20066;-59
2022/02/01 02:46:42;;;;;;;18.30;2.47;;;;;;;;;;5145294;27;20070;-59
2022/02/01 02:49:09;;;;;;;7.77;1.53;;;;;;;;;;5144912;27;20039;-58
2022/02/01 02:51:36;;;;;;;12.63;2.08;;;;;;;;;;5143796;27;20100;-58
2022/02/01 02:54:04;;;;;;;12.57;1.98;;;;;;;;;;5145639;27;20686;-58
2022/02/01 02:56:30;;;;;;;8.57;1.55;;;;;;;;;;5145114;27;20054;-59
2022/02/01 02:58:56;;;;;;;12.68;1.73;;;;;;;;;;5145507;28;20067;-58
2022/02/01 03:01:22;;;;;;;3.28;1.00;;;;;;;;;;5144896;28;20035;-58
2022/02/01 03:03:48;;;;;;;8.23;1.25;;;;;;;;;;5145075;27;20039;-58
2022/02/01 03:06:14;;;;;;;11.60;1.67;;;;;;;;;;5144678;27;20031;-58
2022/02/01 03:08:40;;;;;;;6.18;1.60;;;;;;;;;;5143419;27;20047;-58
2022/02/01 03:11:12;;;;;;;12.10;1.92;;;;;;;;;;5144493;27;20054;-58
2022/02/01 03:13:42;;;;;;;8.43;2.15;;;;;;;;;;5145226;27;20054;-59
2022/02/01 03:16:33;;;;;;;3.65;1.15;;;;;;;;;;5143851;28;20098;-58
2022/02/01 03:21:42;;;;;;;9.55;2.08;;;;;;;;;;5144539;28;20068;-58
2022/02/01 03:24:08;;;;;;;10.85;1.50;;;;;;;;;;5159846;27;20051;-58
2022/02/01 03:26:34;;;;;;;7.07;1.45;;;;;;;;;;5165620;27;20057;-59
2022/02/01 03:29:01;;;;;;;10.35;1.35;;;;;;;;;;5165484;27;20422;-58
2022/02/01 03:31:27;;;;;;;7.90;1.37;;;;;;;;;;5165470;27;20054;-58
2022/02/01 03:33:53;;;;;;;7.45;1.73;;;;;;;;;;5165802;27;20787;-58
2022/02/01 03:36:19;;;;;;;11.60;1.92;;;;;;;;;;5159772;27;20036;-58
2022/02/01 03:38:47;;;;;;;12.13;1.40;;;;;;;;;;5148484;27;20047;-58
2022/02/01 03:41:13;;;;;;;8.45;1.33;;;;;;;;;;5148620;27;20039;-58
2022/02/01 03:43:40;;;;;;;8.70;1.75;;;;;;;;;;5148660;27;20103;-58
2022/02/01 03:46:06;;;;;;;8.65;2.00;;;;;;;;;;5148584;27;20066;-58
2022/02/01 03:48:32;;;;;;;12.75;1.80;;;;;;;;;;5148473;27;20051;-58
2022/02/01 03:50:58;;;;;;;8.05;1.42;;;;;;;;;;5136973;27;20048;-58
2022/02/01 03:53:24;;;;;;;5.03;1.10;;;;;;;;;;5128052;28;20052;-58
2022/02/01 03:55:50;;;;;;;5.03;1.20;;;;;;;;;;5132391;27;20040;-58
2022/02/01 03:58:16;;;;;;;5.43;1.15;;;;;;;;;;5168328;27;20513;-58
2022/02/01 04:00:42;;;;;;;10.07;1.30;;;;;;;;;;5154547;27;20051;-58
2022/02/01 04:03:08;;;;;;;8.77;1.08;;;;;;;;;;5148016;27;20039;-58
2022/02/01 04:05:35;;;;;;;8.00;1.52;;;;;;;;;;5148511;27;20051;-58
2022/02/01 04:08:01;;;;;;;9.23;1.70;;;;;;;;;;5148907;27;20055;-58
2022/02/01 04:10:28;;;;;;;10.13;1.88;;;;;;;;;;5149207;27;20158;-58
2022/02/01 04:12:54;;;;;;;8.68;1.73;;;;;;;;;;5168762;27;20207;-58
2022/02/01 04:15:24;;;;;;;5.47;1.20;;;;;;;;;;5168447;27;20043;-58
2022/02/01 04:17:50;;;;;;;10.75;1.92;;;;;;;;;;5127463;28;20130;-58
2022/02/01 04:20:16;;;;;;;14.80;1.90;;;;;;;;;;5127341;28;20043;-58
2022/02/01 04:22:43;;;;;;;16.55;3.63;;;;;;;;;;5131025;27;20032;-58
2022/02/01 04:25:09;;;;;;;8.40;1.00;;;;;;;;;;5168712;27;20051;-58
2022/02/01 04:27:35;;;;;;;9.65;1.73;;;;;;;;;;5148148;27;20039;-58
2022/02/01 04:30:07;;;;;;;12.07;1.75;;;;;;;;;;5147796;27;20051;-58
2022/02/01 04:32:40;;;;;;;11.05;1.80;;;;;;;;;;5164608;27;20049;-58
2022/02/01 04:35:09;;;;;;;16.20;2.38;;;;;;;;;;5168046;27;20046;-58
2022/02/01 04:37:35;;;;;;;15.23;1.88;;;;;;;;;;5168184;27;20041;-58
2022/02/01 04:40:01;;;;;;;17.77;2.88;;;;;;;;;;5168189;27;20488;-58
2022/02/01 04:42:31;;;;;;;13.88;1.70;;;;;;;;;;5150089;27;20047;-58
2022/02/01 04:44:58;;;;;;;14.15;1.83;;;;;;;;;;5147651;27;20095;-58
2022/02/01 04:47:30;;;;;;;12.73;1.80;;;;;;;;;;5147446;27;20085;-58
2022/02/01 04:49:56;;;;;;;10.23;1.42;;;;;;;;;;5146648;27;20042;-58
2022/02/01 04:52:23;;;;;;;7.88;1.67;;;;;;;;;;5146674;27;20070;-58
2022/02/01 04:54:49;;;;;;;14.85;2.95;;;;;;;;;;5147576;27;20051;-58
2022/02/01 04:57:15;;;;;;;16.60;2.58;;;;;;;;;;5147050;27;20035;-58
2022/02/01 04:59:41;;;;;;;12.07;2.05;;;;;;;;;;5147254;27;20066;-58
2022/02/01 05:02:08;;;;;;;12.85;2.22;;;;;;;;;;5147093;27;20067;-58
2022/02/01 05:04:34;;;;;;;15.38;1.85;;;;;;;;;;5146733;27;20047;-58
2022/02/01 05:07:00;;;;;;;22.65;3.92;;;;;;;;;;5146573;27;20046;-59
2022/02/01 05:09:27;;;;;;;17.90;2.83;;;;;;;;;;5140341;27;20169;-58
2022/02/01 05:11:56;;;;;;;21.08;2.38;;;;;;;;;;5161934;27;20053;-58
2022/02/01 05:14:24;;;;;;;13.02;2.28;;;;;;;;;;5167596;27;20046;-58
2022/02/01 05:22:02;;;;;;;11.30;2.45;;;;;;;;;;5156902;27;20103;-58
2022/02/01 05:24:28;;;;;;;13.10;2.38;;;;;;;;;;5147053;27;20066;-58
2022/02/01 05:26:55;;;;;;;13.80;2.45;;;;;;;;;;5147066;27;20050;-58
2022/02/01 05:29:22;;;;;;;14.85;2.53;;;;;;;;;;5146799;27;20062;-58
2022/02/01 05:31:50;;;;;;;13.20;2.83;;;;;;;;;;5146708;27;20050;-57
2022/02/01 05:34:16;;;;;;;18.27;3.28;;;;;;;;;;5146388;27;20050;-58
2022/02/01 05:36:42;;;;;;;15.07;2.55;;;;;;;;;;5145894;27;20068;-58
2022/02/01 05:39:23;;;;;;;17.55;4.63;;;;;;;;;;5152691;27;20086;-58
2022/02/01 05:41:51;;;;;;;24.73;4.78;;;;;;;;;;5146600;27;20067;-58
2022/02/01 05:44:17;;;;;;;;;;;;;;;;;;5146848;27;20039;-57
2022/02/01 05:46:43;;;;;;;20.55;3.45;;;;;;;;;;5146314;27;20039;-58
2022/02/01 05:49:09;;;;;;;15.35;2.30;;;;;;;;;;5146561;27;20122;-58
2022/02/01 05:51:36;;;;;;;20.45;3.33;;;;;;;;;;5145653;27;20042;-58
2022/02/01 05:54:02;;;;;;;28.95;3.20;;;;;;;;;;5146294;27;20074;-58
2022/02/01 05:56:29;;;;;;;14.63;2.67;;;;;;;;;;5146007;27;20043;-60
2022/02/01 05:58:55;;;;;;;17.45;3.15;;;;;;;;;;5146486;27;20043;-58
2022/02/01 06:01:21;;;;;;;22.42;3.10;;;;;;;;;;5145098;27;20476;-58
2022/02/01 06:03:47;;;;;;;11.45;2.60;;;;;;;;;;5146829;27;20121;-58
2022/02/01 06:06:14;;;;;;;16.27;2.53;;;;;;;;;;5145508;27;20046;-58
2022/02/01 06:08:40;;;;;;;17.75;3.78;;;;;;;;;;5145687;27;20070;-58
2022/02/01 06:11:07;;;;;;;17.60;3.03;;;;;;;;;;5145755;27;20036;-59
2022/02/01 06:13:36;;;;;;;16.67;3.10;;;;;;;;;;5146115;27;20054;-59
2022/02/01 06:16:03;;;;;;;16.77;3.50;;;;;;;;;;5150651;27;20046;-58
2022/02/01 06:18:29;;;;;;;18.95;3.28;;;;;;;;;;5166314;27;20046;-58
2022/02/01 06:20:55;;;;;;;22.25;4.03;;;;;;;;;;5165788;27;20156;-58
2022/02/01 06:23:22;;;;;;;29.58;5.47;;;;;;;;;;5166696;27;20061;-58
2022/02/01 06:25:50;;;;;;;19.53;4.43;;;;;;;;;;5160352;27;20031;-58
2022/02/01 06:28:20;;;;;;;17.60;3.40;;;;;;;;;;5145788;27;20098;-58
2022/02/01 06:30:47;;;;;;;19.45;3.85;;;;;;;;;;5145626;27;20043;-58
2022/02/01 06:33:13;;;;;;;20.33;4.28;;;;;;;;;;5145059;27;20047;-58
2022/02/01 06:35:39;;;;;;;28.77;4.70;;;;;;;;;;5160401;27;20041;-57
2022/02/01 06:38:06;;;;;;;13.35;3.30;;;;;;;;;;5165989;27;20035;-58
2022/02/01 06:40:32;;;;;;;18.63;3.95;;;;;;;;;;5147927;27;20121;-58
2022/02/01 06:42:58;;;;;;;22.80;4.90;;;;;;;;;;5150992;27;20041;-58
2022/02/01 06:45:26;;;;;;;23.27;4.60;;;;;;;;;;5146246;27;20060;-58
2022/02/01 06:47:52;;;;;;;;;;;;;;;;;;5144572;27;20081;-58
2022/02/01 06:50:20;;;;;;;12.50;3.47;;;;;;;;;;5144627;27;20298;-58
2022/02/01 06:52:47;;;;;;;31.10;5.30;;;;;;;;;;5143783;28;20070;-58
2022/02/01 06:55:20;;;;;;;27.47;5.00;;;;;;;;;;5144875;27;20046;-58
2022/02/01 06:57:46;;;;;;;22.58;4.57;;;;;;;;;;5144975;27;20285;-59
2022/02/01 07:00:12;;;;;;;25.02;3.58;;;;;;;;;;5146096;27;20057;-58
2022/02/01 07:02:38;;;;;;;29.77;5.57;;;;;;;;;;5145129;28;20045;-58
2022/02/01 07:05:04;;;;;;;17.13;3.97;;;;;;;;;;5144887;28;20043;-58
2022/02/01 07:07:31;;;;;;;18.23;5.25;;;;;;;;;;5143826;28;20035;-59
2022/02/01 07:09:57;;;;;;;28.90;5.97;;;;;;;;;;5142941;28;20142;-58
2022/02/01 07:12:23;;;;;;;25.80;5.78;;;;;;;;;;5152538;27;20037;-59
2022/02/01 07:14:49;;;;;;;27.85;5.90;;;;;;;;;;5149373;27;20055;-58
2022/02/01 07:17:15;;;;;;;24.08;5.25;;;;;;;;;;5148660;27;20043;-58
2022/02/01 07:19:41;;;;;;;32.05;6.13;;;;;;;;;;5151425;27;20106;-59
2022/02/01 07:22:07;;;;;;;30.77;6.68;;;;;;;;;;5147311;27;20058;-59
2022/02/01 07:24:37;;;;;;;34.08;6.80;;;;;;;;;;5169290;27;20104;-59
2022/02/01 07:27:42;;;;;;;19.98;6.90;;;;;;;;;;5162254;27;20094;-59
2022/02/01 07:30:12;;;;;;;24.15;6.15;;;;;;;;;;5143362;27;20051;-58
2022/02/01 07:32:39;;;;;;;32.00;7.22;;;;;;;;;;5142794;27;20055;-58
2022/02/01 07:35:05;;;;;;;23.38;6.35;;;;;;;;;;5145727;27;20545;-59
2022/02/01 07:37:32;;;;;;;18.92;5.80;;;;;;;;;;5145342;27;20043;-58
2022/02/01 07:39:58;;;;;;;23.55;6.68;;;;;;;;;;5146990;27;20043;-59
2022/02/01 07:42:25;;;;;;;17.70;6.32;;;;;;;;;;5147738;27;20046;-60
2022/02/01 07:44:51;;;;;;;23.20;7.25;;;;;;;;;;5142166;27;20047;-59
2022/02/01 07:47:21;;;;;;;15.35;5.40;;;;;;;;;;5137630;27;20047;-58
2022/02/01 07:49:48;;;;;;;22.63;8.30;;;;;;;;;;5147733;27;20088;-60
2022/02/01 07:52:14;;;;;;;17.42;6.30;;;;;;;;;;5146969;27;20502;-59
2022/02/01 07:54:40;;;;;;;22.55;7.13;;;;;;;;;;5147719;27;20077;-59
2022/02/01 07:57:09;;;;;;;25.17;6.95;;;;;;;;;;5147438;27;20110;-59
2022/02/01 07:59:35;;;;;;;12.82;6.03;;;;;;;;;;5145443;27;20151;-60
2022/02/01 08:02:03;;;;;;;15.52;7.97;;;;;;;;;;5145788;27;20047;-59
2022/02/01 08:04:33;;;;;;;;;;;;;;;;;;5146451;27;20039;-58
2022/02/01 08:06:59;;;;;;;12.02;6.72;;;;;;;;;;5146741;27;19919;-60
2022/02/01 08:09:33;;;;;;;19.70;8.80;;;;;;;;;;5147627;27;20055;-60
2022/02/01 08:11:59;;;;;;;14.48;6.97;;;;;;;;;;5147385;27;20112;-61
2022/02/01 08:20:25;;;;;;;9.88;6.28;;;;;;;;;;5084630;28;20100;-59
2022/02/01 08:25:24;;;;;;;14.85;7.43;;;;;;;;;;5082114;28;20135;-61
2022/02/01 08:27:52;;;;;;;10.57;6.50;;;;;;;;;;5083570;28;20044;-59
2022/02/01 08:30:18;;;;;;;9.15;5.93;;;;;;;;;;5082753;28;20101;-59
2022/02/01 08:32:45;;;;;;;7.32;4.35;;;;;;;;;;5079701;28;20080;-59
2022/02/01 08:35:11;;;;;;;11.25;5.07;;;;;;;;;;5082551;28;20101;-59
2022/02/01 08:37:38;;;;;;;12.15;6.00;;;;;;;;;;5083391;28;20041;-59
2022/02/01 08:40:04;;;;;;;8.60;5.47;;;;;;;;;;5084083;28;20047;-59
2022/02/01 08:42:31;;;;;;;8.23;6.13;;;;;;;;;;5080757;28;20036;-59
2022/02/01 08:44:57;;;;;;;12.48;6.90;;;;;;;;;;5068051;28;20088;-59
2022/02/01 08:47:24;;;;;;;12.75;7.03;;;;;;;;;;5080775;28;20044;-61
2022/02/01 08:49:50;;;;;;;8.60;5.78;;;;;;;;;;5069374;28;20075;-58
2022/02/01 08:53:11;;;;;;;7.55;5.75;;;;;;;;;;5146527;27;20530;-59
2022/02/01 08:55:05;;;;;;;11.35;6.80;;;;;;;;;;5142049;27;20042;-59
2022/02/01 08:57:31;;;;;;;6.13;4.68;;;;;;;;;;5152238;27;20051;-59
2022/02/01 09:00:05;;;;;;;8.82;5.38;;;;;;;;;;5150072;27;20513;-59
2022/02/01 09:02:31;;;;;;;7.40;4.55;;;;;;;;;;5143198;27;20085;-59
2022/02/01 09:04:57;;;;;;;9.48;5.57;;;;;;;;;;5151403;27;20079;-59
2022/02/01 09:07:24;;;;;;;7.43;5.45;;;;;;;;;;5147037;27;20520;-59
2022/02/01 09:09:50;;;;;;;8.63;4.85;;;;;;;;;;5151507;27;20051;-59
2022/02/01 09:12:18;;;;;;;8.63;4.53;;;;;;;;;;5156598;27;20039;-59
2022/02/01 09:14:46;;;;;;;8.65;4.50;;;;;;;;;;5159207;27;20047;-59
2022/02/01 09:17:13;;;;;;;5.90;3.58;;;;;;;;;;5152262;27;20051;-60
2022/02/01 09:19:40;;;;;;;4.85;3.53;;;;;;;;;;5148007;27;20047;-59
2022/02/01 09:22:07;;;;;;;;;;;;;;;;;;5167596;27;20067;-59
2022/02/01 09:24:33;;;;;;;5.25;3.03;;;;;;;;;;5156335;27;19923;-60
2022/02/01 09:26:59;;;;;;;4.10;3.20;;;;;;;;;;5153960;27;20039;-60
2022/02/01 09:29:26;;;;;;;4.82;3.40;;;;;;;;;;5149452;27;20123;-60
2022/02/01 09:31:53;;;;;;;5.05;3.03;;;;;;;;;;5146759;27;20045;-60
2022/02/01 09:34:19;;;;;;;3.53;2.85;;;;;;;;;;5146802;27;20047;-60
2022/02/01 09:36:46;;;;;;;5.45;3.17;;;;;;;;;;5146292;27;20126;-60
2022/02/01 09:39:12;;;;;;;4.60;2.50;;;;;;;;;;5153048;27;20070;-60
2022/02/01 09:41:39;;;;;;;3.85;2.15;;;;;;;;;;5159681;27;22181;-60
2022/02/01 09:44:05;;;;;;;6.70;2.80;;;;;;;;;;5135961;27;20050;-60
2022/02/01 09:46:31;;;;;;;8.32;3.00;;;;;;;;;;5143316;27;20122;-60
2022/02/01 09:48:58;;;;;;;6.25;2.78;;;;;;;;;;5150841;27;20042;-60
2022/02/01 09:51:25;;;;;;;6.35;3.58;;;;;;;;;;5148256;27;20047;-60
2022/02/01 09:53:51;;;;;;;5.80;3.08;;;;;;;;;;5139722;27;20051;-60
2022/02/01 09:56:17;;;;;;;3.40;1.95;;;;;;;;;;5143193;27;20071;-60
2022/02/01 09:58:47;;;;;;;4.25;2.22;;;;;;;;;;5140838;27;20047;-60
2022/02/01 10:01:14;;;;;;;5.60;2.70;;;;;;;;;;5144832;27;20504;-60
2022/02/01 10:03:41;;;;;;;7.47;2.93;;;;;;;;;;5143993;27;20054;-61
2022/02/01 10:06:08;;;;;;;7.43;3.10;;;;;;;;;;5144709;27;20293;-61
2022/02/01 10:08:35;;;;;;;6.28;2.65;;;;;;;;;;5145415;27;20172;-61
2022/02/01 10:11:01;;;;;;;7.47;2.83;;;;;;;;;;5142916;27;20109;-61
2022/02/01 10:13:28;;;;;;;6.10;2.72;;;;;;;;;;5143201;27;20035;-60
2022/02/01 10:16:00;;;;;;;3.97;2.30;;;;;;;;;;5137291;27;20130;-60
2022/02/01 10:18:27;;;;;;;6.55;3.08;;;;;;;;;;5144748;27;20529;-61
2022/02/01 10:20:53;;;;;;;4.38;2.50;;;;;;;;;;5143094;27;20078;-61
2022/02/01 10:23:20;;;;;;;3.80;2.28;;;;;;;;;;5137992;27;20049;-60
2022/02/01 10:25:59;;;;;;;7.40;3.10;;;;;;;;;;5143348;27;20535;-60
2022/02/01 10:28:31;;;;;;;6.07;2.72;;;;;;;;;;5143522;27;20042;-61
2022/02/01 10:31:04;;;;;;;6.30;3.10;;;;;;;;;;5142841;27;20048;-61
2022/02/01 10:33:54;;;;;;;5.20;2.30;;;;;;;;;;5142901;27;20071;-61
2022/02/01 10:36:19;;;;;;;7.93;3.65;;;;;;;;;;5142525;27;20058;-60
2022/02/01 10:38:45;;;;;;;7.13;3.35;;;;;;;;;;5140575;27;20095;-60
2022/02/01 10:41:15;;;;;;;8.50;2.72;;;;;;;;;;5143283;27;20057;-61
2022/02/01 10:43:42;;;;;;;3.55;2.20;;;;;;;;;;5144154;27;20107;-61
2022/02/01 10:46:18;;;;;;;5.68;2.78;;;;;;;;;;5143492;27;20077;-60
2022/02/01 10:48:53;;;;;;;9.52;3.00;;;;;;;;;;5142508;27;20046;-61
2022/02/01 10:51:20;;;;;;;6.20;2.75;;;;;;;;;;5138462;27;20536;-61
2022/02/01 10:53:47;;;;;;;5.82;3.03;;;;;;;;;;5142203;28;20067;-61
2022/02/01 10:56:14;;;;;;;8.88;3.00;;;;;;;;;;5146272;27;20360;-61
2022/02/01 10:58:41;;;;;;;8.25;2.55;;;;;;;;;;5143268;27;20103;-62
2022/02/01 11:01:08;;;;;;;4.95;2.13;;;;;;;;;;5142401;27;20047;-62
2022/02/01 11:03:40;;;;;;;11.00;3.85;;;;;;;;;;5144078;28;20058;-62
2022/02/01 11:06:06;;;;;;;14.90;3.88;;;;;;;;;;5143700;28;20117;-62
2022/02/01 11:08:38;;;;;;;14.98;4.93;;;;;;;;;;5143739;28;20103;-62
2022/02/01 11:11:04;;;;;;;18.48;4.05;;;;;;;;;;5141854;27;20368;-62
2022/02/01 11:13:39;;;;;;;12.80;4.20;;;;;;;;;;5144188;28;20119;-62
2022/02/01 11:16:06;;;;;;;9.38;3.88;;;;;;;;;;5134370;27;20051;-61
2022/02/01 11:18:33;;;;;;;13.65;3.28;;;;;;;;;;5141549;27;20048;-62
2022/02/01 11:21:05;;;;;;;11.70;3.47;;;;;;;;;;5141088;28;20072;-61
2022/02/01 11:23:44;;;;;;;12.15;3.83;;;;;;;;;;5142653;28;20139;-61
2022/02/01 11:26:19;;;;;;;7.72;2.90;;;;;;;;;;5141880;27;20053;-61
2022/02/01 11:29:01;;;;;;;12.70;3.88;;;;;;;;;;5142333;27;20042;-61
2022/02/01 11:31:30;;;;;;;13.93;3.75;;;;;;;;;;5141253;28;20047;-61
2022/02/01 11:33:56;;;;;;;21.02;6.57;;;;;;;;;;5144506;27;20094;-61
2022/02/01 11:36:23;;;;;;;21.23;5.20;;;;;;;;;;5142881;28;20043;-61
2022/02/01 11:38:52;;;;;;;20.88;5.80;;;;;;;;;;5131070;28;20120;-61
2022/02/01 11:41:20;;;;;;;18.02;5.00;;;;;;;;;;5140588;27;20043;-61
2022/02/01 11:43:46;;;;;;;17.08;4.13;;;;;;;;;;5143589;28;20051;-61
2022/02/01 11:46:18;;;;;;;17.08;4.15;;;;;;;;;;5134953;28;20047;-61
2022/02/01 11:48:50;;;;;;;16.80;4.32;;;;;;;;;;5142962;27;20031;-61
2022/02/01 11:51:16;;;;;;;17.23;4.10;;;;;;;;;;5139801;27;20039;-61
2022/02/01 11:53:45;;;;;;;13.50;3.63;;;;;;;;;;5136584;28;20661;-61
2022/02/01 11:56:13;;;;;;;17.67;3.70;;;;;;;;;;5143305;28;21651;-61
2022/02/01 11:58:41;;;;;;;20.55;3.75;;;;;;;;;;5144661;27;20064;-61
2022/02/01 12:01:31;;;;;;;14.90;3.65;;;;;;;;;;5146149;27;20098;-61
2022/02/01 12:04:03;;;;;;;8.73;2.75;;;;;;;;;;5142412;27;20063;-61
2022/02/01 12:06:41;;;;;;;19.55;4.18;;;;;;;;;;5135106;27;20039;-61
2022/02/01 12:09:11;;;;;;;20.92;3.25;;;;;;;;;;5134174;27;20047;-61
2022/02/01 12:11:40;;;;;;;14.70;3.08;;;;;;;;;;5128718;27;20051;-61
2022/02/01 12:14:06;;;;;;;17.27;2.97;;;;;;;;;;5132835;27;20512;-68
2022/02/01 12:16:32;;;;;;;10.98;3.30;;;;;;;;;;5132332;27;20062;-64
2022/02/01 12:19:03;;;;;;;12.77;3.67;;;;;;;;;;5127381;27;20123;-64
2022/02/01 12:21:35;;;;;;;26.73;3.90;;;;;;;;;;5128192;27;20082;-64
2022/02/01 12:24:05;;;;;;;20.63;3.67;;;;;;;;;;5130329;27;20124;-63
2022/02/01 12:26:33;;;;;;;33.80;5.40;;;;;;;;;;5126140;28;20047;-64
2022/02/01 12:29:00;;;;;;;30.55;4.18;;;;;;;;;;5133814;27;20090;-64
2022/02/01 12:31:33;;;;;;;24.50;3.93;;;;;;;;;;5168720;27;20054;-63
2022/02/01 12:34:01;;;;;;;26.10;4.07;;;;;;;;;;5143861;27;20558;-64
2022/02/01 12:36:31;;;;;;;27.58;5.90;;;;;;;;;;5137242;27;20052;-65
2022/02/01 12:38:58;;;;;;;18.35;4.03;;;;;;;;;;5146818;27;20050;-64
2022/02/01 12:41:30;;;;;;;27.05;4.55;;;;;;;;;;5146547;27;20126;-64
2022/02/01 12:46:43;;;;;;;36.58;4.68;;;;;;;;;;5143684;27;20073;-64
2022/02/01 12:49:09;;;;;;;23.40;3.83;;;;;;;;;;5143343;27;20402;-63
2022/02/01 12:51:43;;;;;;;21.13;3.92;;;;;;;;;;5139336;27;20043;-63
2022/02/01 12:54:20;;;;;;;21.42;3.13;;;;;;;;;;5147591;27;20043;-64
2022/02/01 12:56:46;;;;;;;39.75;5.75;;;;;;;;;;5135964;27;20043;-64
2022/02/01 12:59:12;;;;;;;36.90;6.88;;;;;;;;;;5140885;27;20035;-63
2022/02/01 13:01:39;;;;;;;26.65;3.92;;;;;;;;;;5144921;27;20057;-63
2022/02/01 13:04:06;;;;;;;30.50;4.95;;;;;;;;;;5145955;27;20051;-64
2022/02/01 13:06:36;;;;;;;38.00;4.78;;;;;;;;;;5144738;27;20047;-63
2022/02/01 13:20:11;;;;;;;26.55;4.63;;;;;;;;;;5140586;27;20112;-63
2022/02/01 13:22:49;;;;;;;28.02;6.15;;;;;;;;;;5141368;27;20046;-63
2022/02/01 13:25:15;;;;;;;27.55;4.75;;;;;;;;;;5139252;27;20760;-63
2022/02/01 13:27:41;;;;;;;29.48;4.07;;;;;;;;;;5151097;27;21569;-63
2022/02/01 13:30:09;;;;;;;35.10;4.00;;;;;;;;;;5142373;27;20059;-63
2022/02/01 13:32:39;;;;;;;28.15;4.03;;;;;;;;;;5142345;27;20046;-62
2022/02/01 13:35:05;;;;;;;31.35;4.82;;;;;;;;;;5141630;27;20038;-62
2022/02/01 13:37:31;;;;;;;28.88;4.65;;;;;;;;;;5147153;27;20086;-62
2022/02/01 13:39:58;;;;;;;36.33;4.78;;;;;;;;;;5148394;27;20043;-62
2022/02/01 13:42:33;;;;;;;42.95;6.18;;;;;;;;;;5148878;27;20039;-62
2022/02/01 13:45:04;;;;;;;28.67;4.32;;;;;;;;;;5144863;27;20043;-62
2022/02/01 13:47:41;;;;;;;32.25;4.30;;;;;;;;;;5149069;27;20041;-62
2022/02/01 13:50:09;;;;;;;40.50;5.25;;;;;;;;;;5146230;27;20045;-62
2022/02/01 13:52:36;;;;;;;29.02;3.33;;;;;;;;;;5135948;27;20039;-62
2022/02/01 13:55:03;;;;;;;35.40;4.73;;;;;;;;;;5145366;27;20051;-62
2022/02/01 13:57:31;;;;;;;30.77;5.82;;;;;;;;;;5147588;27;20055;-62
2022/02/01 14:00:12;;;;;;;29.02;4.80;;;;;;;;;;5146967;27;20038;-62
2022/02/01 14:02:45;;;;;;;32.85;5.63;;;;;;;;;;5143257;27;20051;-62
2022/02/01 14:05:21;;;;;;;35.78;6.00;;;;;;;;;;5144210;27;20484;-61
2022/02/01 14:10:48;;;;;;;28.20;4.38;;;;;;;;;;5147553;27;20127;-62
2022/02/01 14:16:24;;;;;;;33.67;6.13;;;;;;;;;;5137748;27;20039;-61
2022/02/01 14:26:53;;;;;;;30.77;4.90;;;;;;;;;;5147280;27;20035;-61
2022/02/01 14:34:40;;;;;;;33.72;6.30;;;;;;;;;;5141332;27;20040;-61
2022/02/01 14:37:20;;;;;;;40.55;5.35;;;;;;;;;;5138418;27;20054;-61
2022/02/01 14:45:13;;;;;;;33.35;4.95;;;;;;;;;;5142249;27;20050;-61
2022/02/01 14:47:40;;;;;;;28.13;6.47;;;;;;;;;;5148364;27;20148;-61
2022/02/01 14:50:07;;;;;;;39.55;4.75;;;;;;;;;;5143091;27;20046;-60
2022/02/01 14:52:33;;;;;;;26.13;5.47;;;;;;;;;;5142157;27;20046;-61
2022/02/01 14:55:09;;;;;;;31.90;6.03;;;;;;;;;;5143987;27;20051;-60
2022/02/01 15:14:13;;;;;;;36.00;6.80;;;;;;;;;;5104451;28;20181;-60
2022/02/01 15:16:39;;;;;;;32.83;5.70;;;;;;;;;;5105032;28;20040;-61
2022/02/01 15:19:05;;;;;;;45.42;6.80;;;;;;;;;;5105652;28;20454;-60
2022/02/01 15:21:31;;;;;;;40.85;5.95;;;;;;;;;;5104712;28;20159;-60
2022/02/01 15:23:57;;;;;;;47.20;6.65;;;;;;;;;;5104342;28;20044;-61
2022/02/01 15:26:24;;;;;;;36.80;6.38;;;;;;;;;;5101804;28;20143;-60
2022/02/01 15:28:52;;;;;;;43.33;6.80;;;;;;;;;;5102151;28;20091;-61
2022/02/01 15:31:18;;;;;;;28.42;5.45;;;;;;;;;;5102090;28;20050;-61
2022/02/01 15:33:45;;;;;;;35.80;5.38;;;;;;;;;;5106786;28;20044;-61
2022/02/01 15:36:13;;;;;;;40.08;6.30;;;;;;;;;;5107333;28;20048;-61
2022/02/01 15:38:43;;;;;;;;;;;;;;;;;;5106854;28;20134;-61
2022/02/01 15:59:47;;;;;;;54.58;8.40;;;;;;;;;;5110037;28;20103;-61
2022/02/01 16:02:15;;;;;;;44.67;6.00;;;;;;;;;;5113995;27;20106;-61
2022/02/01 16:04:51;;;;;;;47.42;8.38;;;;;;;;;;5102229;28;20079;-61
2022/02/01 16:07:17;;;;;;;34.05;6.22;;;;;;;;;;5109234;28;20152;-63
2022/02/01 16:12:12;;;;;;;47.22;6.60;;;;;;;;;;5149110;27;20054;-62
2022/02/01 16:14:39;;;;;;;37.40;7.05;;;;;;;;;;5152204;27;21477;-62
2022/02/01 16:17:05;;;;;;;49.13;6.60;;;;;;;;;;5144802;27;20295;-62
2022/02/01 16:19:31;;;;;;;47.05;6.35;;;;;;;;;;5148988;27;21794;-61
2022/02/01 16:21:57;;;;;;;49.67;8.02;;;;;;;;;;5158245;27;20067;-61
2022/02/01 16:24:24;;;;;;;42.25;6.57;;;;;;;;;;5166469;27;20078;-61
2022/02/01 16:26:50;;;;;;;56.35;9.10;;;;;;;;;;5168381;27;20043;-62
2022/02/01 16:29:16;;;;;;;38.75;7.20;;;;;;;;;;5151119;27;20046;-61
2022/02/01 16:31:42;;;;;;;35.17;8.13;;;;;;;;;;5147860;27;20103;-61
2022/02/01 16:34:09;;;;;;;38.08;6.85;;;;;;;;;;5143685;27;20074;-62
2022/02/01 16:36:39;;;;;;;43.42;6.50;;;;;;;;;;5148982;27;20051;-61
2022/02/01 16:39:06;;;;;;;39.13;7.15;;;;;;;;;;5149244;27;20058;-61
2022/02/01 16:41:33;;;;;;;44.70;6.28;;;;;;;;;;5152592;27;20070;-61
2022/02/01 16:44:01;;;;;;;38.58;7.70;;;;;;;;;;5150563;27;20050;-61
2022/02/01 16:46:29;;;;;;;50.88;7.70;;;;;;;;;;5166070;27;20053;-61
2022/02/01 16:48:55;;;;;;;43.13;7.57;;;;;;;;;;5164150;27;20102;-61
2022/02/01 16:51:21;;;;;;;47.10;7.30;;;;;;;;;;5145985;27;20050;-61
2022/02/01 16:53:54;;;;;;;49.58;7.70;;;;;;;;;;5153519;27;20094;-61
2022/02/01 16:58:53;;;;;;;47.35;7.72;;;;;;;;;;5146244;27;20107;-61
2022/02/01 17:01:20;;;;;;;36.08;8.50;;;;;;;;;;5166461;27;20054;-61
2022/02/01 17:03:46;;;;;;;34.10;7.90;;;;;;;;;;5146100;27;20042;-61
2022/02/01 17:06:13;;;;;;;48.78;7.05;;;;;;;;;;5144362;27;20058;-60
2022/02/01 17:08:40;;;;;;;43.65;8.20;;;;;;;;;;5145570;27;20039;-60
2022/02/01 17:12:05;;;;;;;37.53;6.00;;;;;;;;;;5137195;27;20047;-60
2022/02/01 17:21:59;;;;;;;46.40;8.48;;;;;;;;;;5097804;28;20103;-61
2022/02/01 17:24:28;;;;;;;48.45;8.80;;;;;;;;;;5101353;28;20040;-61
2022/02/01 17:26:55;;;;;;;37.33;8.30;;;;;;;;;;5103801;28;20085;-61
2022/02/01 17:29:21;;;;;;;45.63;7.63;;;;;;;;;;5103481;28;20083;-61
2022/02/01 17:31:47;;;;;;;48.92;9.02;;;;;;;;;;5101546;28;20286;-60
2022/02/01 17:34:14;;;;;;;44.85;7.57;;;;;;;;;;5085429;28;20139;-61